Airfield :
LOGIN :

Register | Disclaimer

   EN    FR    IT 

 










Legend :    VFR   Marginal VFR   IFR   Intensive IFR   Very Intensive IFR
Visi :
Ceiling :
>= 8 km
>= 3000ft
5 to 8 km
1000 to 3000 ft
1500m to 5 km
500 to 1000 ft
800 to 1500m
200 to 500 ft
< 800m
< 200 ft
Symbols :   Thunderstorms  Fog  Heavy snow  Heavy precipitations  Wind > 20 kt
SIGMETs :     Misc.  Thunderstorms  Icing  Turbulence  Mountain Waves  Volcanic Ashes







- Airport Elevation : 306 ft
- IATA code : EMA
- Download approach charts


EGNX - Nottingham East Midlands

CURRENT METAR :
  • 260550Z 15006KT 120V190 9999 SCT010 06/06 Q1006

EXPIRED METARs :
  • 260520Z 18005KT 9999 FEW008 06/05 Q1006
  • 260450Z 19006KT 9999 FEW007 06/05 Q1006
  • 260420Z 18008KT 9999 SCT009 06/06 Q1005
  • 260350Z 18007KT CAVOK 06/05 Q1005
  • 260320Z 18007KT 050V190 CAVOK 06/05 Q1005

TAF TAF EGNX
Valid from the 26 at 06:00 until the 27 at 06:00 UTC


260500Z 2606/2706 17006KT 9999 FEW030
BECMG 2608/2611 21016KT
PROB40
TEMPO 2612/2617 7000 SHRA BKN014
TEMPO 2620/2624 7000 RA BKN012
BECMG 2621/2624 20018G28KT
BECMG 2701/2704 24023G33KT
TEMPO 2702/2706 7000 RA SHRA BKN012
ATIS : +44 1332 852 852 (ext 3201)
No reported NOTAMs for that airfield.



MET'MAP, your aeronautical weather chart ! - Copyright ORBIFLY December 2007 - Disclaimer

ORBIFLY MET'MAP TEAM :

Programming & Development : Alexandra Zaïnal
Concept & Development : Baudouin d'Aumeries
Co-Development & Prog : Marc-Olivier Méhu
Technical & hardware support : Manuel Goepfert

Contact : metmap@orbifly.com




SOURCES & CREDITS :

   NOAA